| time (UTC) | temp F | wind direction | speed MPH | gust MPH | rain 1hr in | rain 24hr in | rain mn in | humidity % | barometer mb |
| 20260509222401 | 62 | 185 | 1.0 | 3.0 | 0.00 | 0.27 | 0.27 | 83 | 1009.9 |
| 20260509221856 | 62 | 182 | 2.0 | 3.0 | 0.00 | 0.27 | 0.27 | 82 | 1010.0 |
| 20260509221354 | 62 | 175 | 1.0 | 2.0 | 0.00 | 0.27 | 0.27 | 83 | 1009.8 |
| 20260509220849 | 61 | 174 | 2.0 | 3.0 | 0.00 | 0.27 | 0.27 | 83 | 1009.9 |
| 20260509220345 | 60 | 172 | 3.0 | 5.0 | 0.00 | 0.27 | 0.27 | 85 | 1010.2 |
| 20260509215841 | 60 | 191 | 2.0 | 6.0 | 0.00 | 0.27 | 0.27 | 84 | 1010.3 |
| 20260509215337 | 61 | 156 | 0.0 | 1.0 | 0.00 | 0.27 | 0.27 | 85 | 1010.3 |
| 20260509214835 | 61 | 200 | 2.0 | 2.0 | 0.00 | 0.27 | 0.27 | 85 | 1010.4 |
| 20260509214332 | 60 | 146 | 0.0 | 0.0 | 0.00 | 0.27 | 0.27 | 85 | 1010.5 |
| 20260509213829 | 60 | 99 | 2.0 | 3.0 | 0.00 | 0.27 | 0.27 | 87 | 1010.4 |
| 20260509213324 | 60 | 126 | 2.0 | 5.0 | 0.00 | 0.27 | 0.27 | 87 | 1010.4 |
| 20260509212822 | 61 | 334 | 3.0 | 3.0 | 0.00 | 0.27 | 0.27 | 86 | 1010.4 |
| 20260509212320 | 60 | 88 | 0.0 | 3.0 | 0.00 | 0.27 | 0.27 | 87 | 1010.3 |
| 20260509211815 | 59 | 320 | 2.0 | 5.0 | 0.00 | 0.27 | 0.27 | 87 | 1010.2 |
| 20260509211311 | 59 | 287 | 3.0 | 5.0 | 0.00 | 0.27 | 0.27 | 88 | 1010.4 |
| 20260509210808 | 59 | 333 | 3.0 | 3.0 | 0.00 | 0.27 | 0.27 | 89 | 1010.6 |
| 20260509210306 | 58 | 313 | 3.0 | 5.0 | 0.00 | 0.27 | 0.27 | 93 | 1010.4 |
| 20260509205805 | 57 | 149 | 1.0 | 2.0 | 0.00 | 0.27 | 0.27 | 95 | 1010.6 |
| 20260509205300 | 56 | 146 | 1.0 | 2.0 | 0.00 | 0.27 | 0.27 | 98 | 1010.6 |
| 20260509204756 | 56 | 155 | 1.0 | 1.0 | 0.00 | 0.27 | 0.27 | 97 | 1010.6 |
| 20260509204253 | 56 | 152 | 0.0 | 0.0 | 0.00 | 0.27 | 0.27 | 96 | 1010.6 |
| 20260509203749 | 56 | 157 | 1.0 | 1.0 | 0.00 | 0.27 | 0.27 | 97 | 1010.5 |
| 20260509203247 | 56 | 151 | 0.0 | 0.0 | 0.00 | 0.27 | 0.27 | 96 | 1010.7 |
| 20260509202742 | 55 | 142 | 0.0 | 0.0 | 0.00 | 0.27 | 0.27 | 97 | 1010.6 |
| 20260509202238 | 55 | 146 | 0.0 | 1.0 | 0.00 | 0.27 | 0.27 | 97 | 1010.8 |
| 20260509201733 | 55 | 144 | 0.0 | 2.0 | 0.00 | 0.27 | 0.27 | 97 | 1010.6 |
| 20260509201230 | 55 | 184 | 1.0 | 2.0 | 0.00 | 0.27 | 0.27 | 97 | 1010.9 |
| 20260509200726 | 55 | 180 | 2.0 | 3.0 | 0.00 | 0.27 | 0.27 | 96 | 1010.8 |
| 20260509200221 | 55 | 221 | 4.0 | 5.0 | 0.00 | 0.27 | 0.27 | 96 | 1011.0 |
| 20260509195717 | 55 | 152 | 0.0 | 1.0 | 0.00 | 0.27 | 0.27 | 97 | 1010.9 |
| 20260509195213 | 55 | 163 | 1.0 | 5.0 | 0.00 | 0.27 | 0.27 | 96 | 1011.1 |
| 20260509194707 | 55 | 211 | 5.0 | 6.0 | 0.00 | 0.27 | 0.27 | 96 | 1011.0 |
| 20260509194204 | 55 | 226 | 4.0 | 8.0 | 0.00 | 0.27 | 0.27 | 97 | 1011.2 |
| 20260509193700 | 55 | 157 | 0.0 | 3.0 | 0.07 | 0.27 | 0.27 | 98 | 1011.2 |
| 20260509193155 | 55 | 192 | 3.0 | 5.0 | 0.07 | 0.27 | 0.27 | 98 | 1011.4 |
| 20260509192652 | 55 | 194 | 3.0 | 5.0 | 0.00 | 0.26 | 0.26 | 99 | 1011.3 |
| 20260509192147 | 55 | 202 | 3.0 | 5.0 | 0.05 | 0.26 | 0.26 | 99 | 1011.4 |
| 20260509191648 | 55 | 161 | 2.0 | 3.0 | 0.05 | 0.26 | 0.26 | 99 | 1011.5 |
| 20260509191144 | 55 | 146 | 1.0 | 2.0 | 0.00 | 0.25 | 0.25 | 99 | 1011.5 |
| 20260509190641 | 54 | 208 | 3.0 | 5.0 | 0.00 | 0.25 | 0.25 | 98 | 1011.7 |
| 20260509190138 | 55 | 156 | 1.0 | 2.0 | 0.00 | 0.25 | 0.25 | 98 | 1011.4 |
| 20260509185636 | 55 | 167 | 0.0 | 2.0 | 0.00 | 0.25 | 0.25 | 99 | 1011.4 |
| 20260509185131 | 55 | 141 | 0.0 | 2.0 | 0.00 | 0.25 | 0.25 | 98 | 1011.4 |
| 20260509184630 | 54 | 195 | 1.0 | 2.0 | 0.00 | 0.25 | 0.25 | 99 | 1011.5 |
| 20260509184126 | 54 | 46 | 3.0 | 3.0 | 0.00 | 0.25 | 0.25 | 99 | 1011.5 |
| 20260509183622 | 54 | 110 | 0.0 | 1.0 | 0.00 | 0.25 | 0.25 | 99 | 1011.4 |
| 20260509183117 | 54 | 148 | 0.0 | 2.0 | 0.07 | 0.25 | 0.25 | 99 | 1011.5 |
| 20260509182614 | 53 | 186 | 1.0 | 3.0 | 0.07 | 0.25 | 0.25 | 99 | 1011.8 |
| 20260509182111 | 53 | 209 | 3.0 | 3.0 | 0.00 | 0.24 | 0.24 | 99 | 1011.7 |
| 20260509181609 | 54 | 325 | 2.0 | 3.0 | 0.00 | 0.24 | 0.24 | 99 | 1011.8 |
| 20260509181106 | 53 | 172 | 2.0 | 2.0 | 0.00 | 0.24 | 0.24 | 99 | 1011.8 |
| 20260509180602 | 53 | 161 | 1.0 | 2.0 | 0.00 | 0.24 | 0.24 | 99 | 1012.0 |
| 20260509180100 | 53 | 163 | 1.0 | 2.0 | 0.00 | 0.24 | 0.24 | 99 | 1012.1 |
| 20260509175555 | 53 | 155 | 1.0 | 3.0 | 0.00 | 0.24 | 0.24 | 99 | 1012.0 |
| 20260509175052 | 53 | 156 | 1.0 | 2.0 | 0.07 | 0.24 | 0.24 | 99 | 1012.0 |
| 20260509174548 | 53 | 47 | 1.0 | 2.0 | 0.07 | 0.24 | 0.24 | 99 | 1011.9 |
| 20260509174043 | 53 | 167 | 2.0 | 2.0 | 0.00 | 0.23 | 0.23 | 99 | 1012.3 |
| 20260509173538 | 53 | 211 | 3.0 | 5.0 | 0.05 | 0.23 | 0.23 | 99 | 1012.0 |
| 20260509173034 | 53 | 205 | 2.0 | 3.0 | 0.05 | 0.23 | 0.23 | 99 | 1012.2 |
| 20260509172532 | 53 | 169 | 3.0 | 3.0 | 0.00 | 0.22 | 0.22 | 99 | 1011.9 |
| 20260509172027 | 53 | 152 | 0.0 | 1.0 | 0.07 | 0.22 | 0.22 | 99 | 1011.8 |
| 20260509171524 | 53 | 186 | 1.0 | 5.0 | 0.12 | 0.22 | 0.22 | 99 | 1011.7 |
| 20260509171020 | 53 | 318 | 3.0 | 6.0 | 0.17 | 0.21 | 0.21 | 99 | 1012.1 |
| 20260509170516 | 52 | 144 | 0.0 | 1.0 | 0.19 | 0.20 | 0.20 | 99 | 1012.0 |
| 20260509170012 | 52 | 131 | 0.0 | 2.0 | 0.12 | 0.18 | 0.18 | 99 | 1012.3 |
| 20260509165510 | 52 | 146 | 0.0 | 1.0 | 0.12 | 0.17 | 0.17 | 99 | 1012.3 |
| 20260509165006 | 52 | 151 | 2.0 | 3.0 | 0.07 | 0.16 | 0.16 | 99 | 1011.9 |
| 20260509164503 | 52 | 167 | 1.0 | 2.0 | 0.05 | 0.15 | 0.15 | 99 | 1012.0 |
| 20260509163958 | 52 | 170 | 2.0 | 3.0 | 0.05 | 0.15 | 0.15 | 99 | 1012.1 |
| 20260509163456 | 52 | 203 | 2.0 | 3.0 | 0.07 | 0.14 | 0.14 | 99 | 1012.2 |
| 20260509162955 | 52 | 155 | 1.0 | 2.0 | 0.07 | 0.14 | 0.14 | 99 | 1012.2 |
| 20260509162454 | 52 | 150 | 2.0 | 5.0 | 0.05 | 0.13 | 0.13 | 99 | 1012.3 |
| 20260509161949 | 52 | 187 | 5.0 | 11.0 | 0.12 | 0.13 | 0.13 | 99 | 1012.4 |
| 20260509161446 | 52 | 208 | 3.0 | 6.0 | 0.14 | 0.12 | 0.12 | 99 | 1012.5 |
| 20260509160941 | 52 | 191 | 7.0 | 9.0 | 0.12 | 0.11 | 0.11 | 99 | 1012.5 |
| 20260509160438 | 52 | 174 | 3.0 | 7.0 | 0.17 | 0.10 | 0.10 | 99 | 1012.5 |
| 20260509155933 | 52 | 160 | 1.0 | 6.0 | 0.24 | 0.09 | 0.09 | 99 | 1012.4 |
| 20260509155430 | 52 | 152 | 2.0 | 6.0 | 0.19 | 0.07 | 0.07 | 99 | 1012.4 |
| 20260509154926 | 53 | 156 | 3.0 | 5.0 | 0.12 | 0.05 | 0.05 | 98 | 1013.0 |
| 20260509154423 | 53 | 146 | 4.0 | 9.0 | 0.12 | 0.04 | 0.04 | 97 | 1013.2 |
| 20260509153920 | 53 | 185 | 4.0 | 10.0 | 0.07 | 0.03 | 0.03 | 96 | 1012.5 |
| 20260509153416 | 53 | 155 | 2.0 | 3.0 | 0.05 | 0.02 | 0.02 | 96 | 1012.5 |
| 20260509152914 | 54 | 167 | 3.0 | 5.0 | 0.05 | 0.02 | 0.02 | 94 | 1012.6 |
| 20260509152409 | 54 | 215 | 2.0 | 6.0 | 0.00 | 0.01 | 0.01 | 93 | 1012.5 |
| 20260509151907 | 55 | 150 | 1.0 | 3.0 | 0.07 | 0.01 | 0.01 | 93 | 1012.5 |
| 20260509151403 | 55 | 180 | 3.0 | 8.0 | 0.07 | 0.01 | 0.01 | 92 | 1012.5 |
| 20260509150901 | 55 | 151 | 1.0 | 3.0 | 0.00 | 0.00 | 0.00 | 90 | 1012.5 |
| 20260509150358 | 55 | 155 | 0.0 | 0.0 | 0.00 | 0.00 | 0.00 | 90 | 1012.3 |
| 20260509145856 | 55 | 154 | 1.0 | 2.0 | 0.00 | 0.00 | 0.00 | 89 | 1012.3 |
| 20260509145350 | 55 | 155 | 0.0 | 0.0 | 0.00 | 0.00 | 0.00 | 88 | 1012.2 |
| 20260509144847 | 55 | 158 | 0.0 | 2.0 | 0.00 | 0.00 | 0.00 | 88 | 1012.5 |
| 20260509144344 | 55 | 122 | 3.0 | 3.0 | 0.00 | 0.00 | 0.00 | 87 | 1012.4 |
| 20260509143841 | 55 | 164 | 2.0 | 3.0 | 0.00 | 0.00 | 0.00 | 88 | 1012.5 |
| 20260509143338 | 55 | 196 | 3.0 | 5.0 | 0.00 | 0.00 | 0.00 | 86 | 1012.5 |
| 20260509142834 | 55 | 67 | 2.0 | 2.0 | 0.00 | 0.00 | 0.00 | 89 | 1012.4 |
| 20260509142331 | 54 | 184 | 1.0 | 2.0 | 0.00 | 0.00 | 0.00 | 91 | 1012.6 |
| 20260509141827 | 53 | 136 | 2.0 | 3.0 | 0.00 | 0.00 | 0.00 | 95 | 1012.2 |
| 20260509141328 | 53 | 127 | 0.0 | 0.0 | 0.00 | 0.00 | 0.00 | 97 | 1012.3 |
| 20260509140820 | 53 | 124 | 0.0 | 0.0 | 0.00 | 0.00 | 0.00 | 98 | 1012.2 |
| 20260509140317 | 52 | 125 | 0.0 | 0.0 | 0.00 | 0.00 | 0.00 | 98 | 1012.2 |
| 20260509135815 | 52 | 128 | 2.0 | 3.0 | 0.00 | 0.00 | 0.00 | 98 | 1011.8 |
| 20260509135312 | 53 | 140 | 3.0 | 3.0 | 0.00 | 0.00 | 0.00 | 96 | 1011.8 |
| 20260509134809 | 54 | 154 | 0.0 | 0.0 | 0.00 | 0.00 | 0.00 | 94 | 1012.1 |
| 20260509134307 | 54 | 115 | 0.0 | 0.0 | 0.00 | 0.00 | 0.00 | 90 | 1011.8 |
| 20260509133804 | 54 | 115 | 0.0 | 0.0 | 0.00 | 0.00 | 0.00 | 91 | 1011.7 |
| 20260509133300 | 54 | 116 | 0.0 | 0.0 | 0.00 | 0.00 | 0.00 | 90 | 1012.0 |
| 20260509132759 | 54 | 109 | 1.0 | 1.0 | 0.00 | 0.00 | 0.00 | 89 | 1011.8 |
| 20260509132258 | 54 | 134 | 0.0 | 2.0 | 0.00 | 0.00 | 0.00 | 89 | 1012.2 |
| 20260509131754 | 54 | 144 | 0.0 | 0.0 | 0.00 | 0.00 | 0.00 | 88 | 1012.4 |
| 20260509131250 | 54 | 178 | 1.0 | 2.0 | 0.00 | 0.00 | 0.00 | 89 | 1012.4 |
| 20260509130747 | 54 | 117 | 0.0 | 0.0 | 0.00 | 0.00 | 0.00 | 90 | 1012.5 |
| 20260509130242 | 53 | 126 | 0.0 | 0.0 | 0.00 | 0.00 | 0.00 | 91 | 1012.3 |
| 20260509125739 | 53 | 139 | 0.0 | 2.0 | 0.00 | 0.00 | 0.00 | 91 | 1012.3 |
| 20260509125236 | 53 | 146 | 0.0 | 1.0 | 0.00 | 0.00 | 0.00 | 91 | 1012.3 |
| 20260509124733 | 53 | 108 | 4.0 | 5.0 | 0.00 | 0.00 | 0.00 | 90 | 1012.2 |
| 20260509124229 | 53 | 124 | 3.0 | 3.0 | 0.00 | 0.00 | 0.00 | 92 | 1012.1 |
| 20260509123728 | 53 | 134 | 0.0 | 1.0 | 0.00 | 0.00 | 0.00 | 90 | 1012.0 |
| 20260509123224 | 53 | 63 | 2.0 | 2.0 | 0.00 | 0.00 | 0.00 | 88 | 1012.1 |
| 20260509122720 | 53 | 111 | 1.0 | 2.0 | 0.00 | 0.00 | 0.00 | 88 | 1011.9 |
| 20260509122217 | 53 | 151 | 1.0 | 2.0 | 0.00 | 0.00 | 0.00 | 89 | 1011.9 |
| 20260509121713 | 53 | 34 | 5.0 | 6.0 | 0.00 | 0.00 | 0.00 | 89 | 1011.5 |
| 20260509121211 | 53 | 105 | 1.0 | 3.0 | 0.00 | 0.00 | 0.00 | 90 | 1011.8 |
| 20260509120709 | 52 | 61 | 3.0 | 5.0 | 0.00 | 0.00 | 0.00 | 91 | 1011.9 |
| 20260509120207 | 52 | 45 | 4.0 | 5.0 | 0.00 | 0.00 | 0.00 | 90 | 1011.7 |
| 20260509115704 | 52 | 109 | 2.0 | 2.0 | 0.00 | 0.00 | 0.00 | 90 | 1011.9 |
| 20260509115201 | 52 | 73 | 3.0 | 5.0 | 0.00 | 0.00 | 0.00 | 90 | 1011.6 |
| 20260509114700 | 52 | 75 | 4.0 | 7.0 | 0.00 | 0.00 | 0.00 | 89 | 1011.7 |
| 20260509114158 | 51 | 69 | 4.0 | 7.0 | 0.00 | 0.00 | 0.00 | 92 | 1011.6 |
| 20260509113656 | 51 | 125 | 0.0 | 0.0 | 0.00 | 0.00 | 0.00 | 93 | 1011.4 |
| 20260509113153 | 51 | 126 | 2.0 | 2.0 | 0.00 | 0.00 | 0.00 | 91 | 1011.8 |
| 20260509112650 | 50 | 78 | 3.0 | 5.0 | 0.00 | 0.00 | 0.00 | 95 | 1011.7 |
| 20260509112147 | 50 | 148 | 1.0 | 1.0 | 0.00 | 0.00 | 0.00 | 97 | 1011.4 |
| 20260509111644 | 50 | 131 | 1.0 | 2.0 | 0.00 | 0.00 | 0.00 | 98 | 1011.6 |
| 20260509111140 | 49 | 97 | 1.0 | 2.0 | 0.00 | 0.00 | 0.00 | 98 | 1011.8 |
| 20260509110638 | 50 | 129 | 0.0 | 0.0 | 0.00 | 0.00 | 0.00 | 98 | 1011.9 |
| 20260509110135 | 49 | 136 | 0.0 | 0.0 | 0.00 | 0.00 | 0.00 | 98 | 1011.8 |
| 20260509105633 | 49 | 114 | 0.0 | 0.0 | 0.00 | 0.00 | 0.00 | 98 | 1011.7 |
| 20260509105130 | 49 | 135 | 0.0 | 0.0 | 0.00 | 0.00 | 0.00 | 97 | 1011.5 |
| 20260509104627 | 49 | 146 | 1.0 | 2.0 | 0.00 | 0.00 | 0.00 | 96 | 1011.7 |
| 20260509104124 | 48 | 137 | 0.0 | 0.0 | 0.00 | 0.00 | 0.00 | 99 | 1011.7 |
| 20260509103622 | 48 | 137 | 2.0 | 2.0 | 0.00 | 0.00 | 0.00 | 99 | 1011.6 |
| 20260509103120 | 48 | 122 | 0.0 | 0.0 | 0.00 | 0.00 | 0.00 | 98 | 1011.7 |
| 20260509102617 | 48 | 127 | 0.0 | 0.0 | 0.00 | 0.00 | 0.00 | 98 | 1011.6 |
| 20260509102114 | 48 | 155 | 0.0 | 0.0 | 0.00 | 0.00 | 0.00 | 99 | 1011.7 |
| 20260509101610 | 48 | 118 | 1.0 | 2.0 | 0.00 | 0.00 | 0.00 | 99 | 1011.5 |
| 20260509101107 | 48 | 169 | 0.0 | 0.0 | 0.00 | 0.00 | 0.00 | 99 | 1011.6 |
| 20260509100604 | 47 | 121 | 0.0 | 0.0 | 0.00 | 0.00 | 0.00 | 99 | 1011.7 |
| 20260509095557 | 47 | 133 | 0.0 | 0.0 | 0.00 | 0.00 | 0.00 | 99 | 1011.7 |
| 20260509095055 | 47 | 156 | 0.0 | 0.0 | 0.00 | 0.00 | 0.00 | 99 | 1011.5 |
| 20260509094551 | 47 | 158 | 0.0 | 0.0 | 0.00 | 0.00 | 0.00 | 99 | 1011.4 |
| 20260509094049 | 46 | 136 | 0.0 | 0.0 | 0.00 | 0.00 | 0.00 | 99 | 1011.6 |
| 20260509093547 | 46 | 136 | 0.0 | 0.0 | 0.00 | 0.00 | 0.00 | 99 | 1011.5 |
| 20260509093044 | 46 | 137 | 0.0 | 0.0 | 0.00 | 0.00 | 0.00 | 99 | 1011.3 |
| 20260509092542 | 46 | 141 | 0.0 | 0.0 | 0.00 | 0.00 | 0.00 | 99 | 1011.6 |
| 20260509092040 | 46 | 124 | 0.0 | 0.0 | 0.00 | 0.00 | 0.00 | 99 | 1011.6 |
| 20260509091537 | 46 | 108 | 0.0 | 0.0 | 0.00 | 0.00 | 0.00 | 99 | 1011.7 |
| 20260509091034 | 46 | 140 | 0.0 | 0.0 | 0.00 | 0.00 | 0.00 | 99 | 1011.6 |
| 20260509090531 | 46 | 111 | 0.0 | 0.0 | 0.00 | 0.00 | 0.00 | 99 | 1011.5 |
| 20260509090029 | 46 | 131 | 0.0 | 0.0 | 0.00 | 0.00 | 0.00 | 99 | 1011.6 |
| 20260509085526 | 46 | 131 | 0.0 | 0.0 | 0.00 | 0.00 | 0.00 | 99 | 1011.9 |
| 20260509085022 | 46 | 132 | 0.0 | 0.0 | 0.00 | 0.00 | 0.00 | 99 | 1011.7 |
| 20260509084519 | 46 | 133 | 0.0 | 0.0 | 0.00 | 0.00 | 0.00 | 99 | 1011.8 |
| 20260509084016 | 46 | 135 | 0.0 | 0.0 | 0.00 | 0.00 | 0.00 | 99 | 1011.9 |
| 20260509083513 | 46 | 136 | 0.0 | 0.0 | 0.00 | 0.00 | 0.00 | 99 | 1012.0 |
| 20260509083010 | 46 | 150 | 0.0 | 0.0 | 0.00 | 0.00 | 0.00 | 99 | 1012.1 |
| 20260509082508 | 46 | 164 | 0.0 | 2.0 | 0.00 | 0.00 | 0.00 | 99 | 1011.9 |
| 20260509082004 | 46 | 119 | 0.0 | 3.0 | 0.00 | 0.00 | 0.00 | 99 | 1012.1 |
| 20260509081502 | 46 | 76 | 4.0 | 5.0 | 0.00 | 0.00 | 0.00 | 99 | 1012.1 |
| 20260509080958 | 45 | 176 | 1.0 | 2.0 | 0.00 | 0.00 | 0.00 | 99 | 1012.4 |
| 20260509080456 | 45 | 113 | 2.0 | 3.0 | 0.00 | 0.00 | 0.00 | 99 | 1012.4 |
| 20260509075954 | 45 | 129 | 0.0 | 0.0 | 0.00 | 0.00 | 0.00 | 99 | 1012.5 |
| 20260509075451 | 45 | 121 | 0.0 | 1.0 | 0.00 | 0.00 | 0.00 | 99 | 1012.6 |
| 20260509074949 | 44 | 132 | 0.0 | 0.0 | 0.00 | 0.00 | 0.00 | 99 | 1012.5 |
| 20260509074446 | 45 | 133 | 0.0 | 0.0 | 0.00 | 0.00 | 0.00 | 99 | 1012.4 |
| 20260509073942 | 45 | 134 | 0.0 | 0.0 | 0.00 | 0.00 | 0.00 | 99 | 1012.6 |
| 20260509073439 | 45 | 134 | 0.0 | 0.0 | 0.00 | 0.00 | 0.00 | 99 | 1012.5 |
| 20260509072935 | 45 | 112 | 0.0 | 0.0 | 0.00 | 0.00 | 0.00 | 99 | 1012.5 |
| 20260509072432 | 45 | 117 | 0.0 | 0.0 | 0.00 | 0.00 | 0.00 | 99 | 1012.6 |
| 20260509071929 | 45 | 117 | 0.0 | 0.0 | 0.00 | 0.00 | 0.00 | 99 | 1012.8 |
| 20260509071426 | 46 | 118 | 0.0 | 0.0 | 0.00 | 0.00 | 0.00 | 99 | 1012.7 |
| 20260509070923 | 45 | 117 | 0.0 | 0.0 | 0.00 | 0.00 | 0.00 | 99 | 1012.8 |
| 20260509070420 | 45 | 117 | 0.0 | 0.0 | 0.00 | 0.00 | 0.00 | 99 | 1012.8 |
| 20260509065915 | 46 | 114 | 0.0 | 0.0 | 0.00 | 0.00 | 0.00 | 99 | 1012.7 |
| 20260509065412 | 47 | 117 | 0.0 | 0.0 | 0.00 | 0.00 | 0.00 | 99 | 1012.7 |
| 20260509064908 | 46 | 35 | 0.0 | 0.0 | 0.00 | 0.00 | 0.00 | 99 | 1012.8 |
| 20260509064406 | 47 | 47 | 0.0 | 0.0 | 0.00 | 0.00 | 0.00 | 99 | 1013.0 |
| 20260509063903 | 47 | 119 | 0.0 | 0.0 | 0.00 | 0.00 | 0.00 | 99 | 1013.0 |
| 20260509063359 | 48 | 137 | 1.0 | 1.0 | 0.00 | 0.00 | 0.00 | 99 | 1013.0 |
| 20260509062856 | 48 | 138 | 2.0 | 2.0 | 0.00 | 0.00 | 0.00 | 99 | 1013.0 |
| 20260509062353 | 48 | 129 | 0.0 | 0.0 | 0.00 | 0.00 | 0.00 | 98 | 1013.1 |
| 20260509061850 | 48 | 105 | 0.0 | 2.0 | 0.00 | 0.00 | 0.00 | 98 | 1013.1 |
| 20260509061349 | 48 | 119 | 0.0 | 0.0 | 0.00 | 0.00 | 0.00 | 98 | 1012.8 |
| 20260509060845 | 49 | 121 | 0.0 | 0.0 | 0.00 | 0.00 | 0.00 | 98 | 1013.1 |
| 20260509060342 | 49 | 121 | 0.0 | 0.0 | 0.00 | 0.00 | 0.00 | 99 | 1012.7 |
| 20260509055837 | 49 | 119 | 1.0 | 2.0 | 0.00 | 0.00 | 0.00 | 99 | 1012.7 |
| 20260509055333 | 49 | 129 | 1.0 | 1.0 | 0.00 | 0.00 | 0.00 | 98 | 1013.0 |
| 20260509054831 | 49 | 131 | 0.0 | 0.0 | 0.00 | 0.00 | 0.00 | 98 | 1013.2 |
| 20260509054327 | 49 | 130 | 0.0 | 0.0 | 0.00 | 0.00 | 0.00 | 97 | 1013.2 |
| 20260509053826 | 49 | 114 | 1.0 | 1.0 | 0.00 | 0.00 | 0.00 | 97 | 1013.4 |
| 20260509053322 | 49 | 139 | 0.0 | 0.0 | 0.00 | 0.00 | 0.00 | 97 | 1013.2 |
| 20260509052821 | 50 | 139 | 0.0 | 0.0 | 0.00 | 0.00 | 0.00 | 97 | 1013.4 |
| 20260509052318 | 50 | 157 | 0.0 | 0.0 | 0.00 | 0.00 | 0.00 | 96 | 1013.5 |
| 20260509051815 | 50 | 157 | 0.0 | 1.0 | 0.00 | 0.00 | 0.00 | 96 | 1013.3 |
| 20260509051313 | 49 | 182 | 1.0 | 2.0 | 0.00 | 0.00 | 0.00 | 96 | 1013.4 |
| 20260509050809 | 49 | 154 | 1.0 | 2.0 | 0.00 | 0.00 | 0.00 | 96 | 1013.1 |
| 20260509050306 | 49 | 142 | 2.0 | 2.0 | 0.00 | 0.00 | 0.00 | 97 | 1012.8 |
| 20260509045804 | 49 | 150 | 3.0 | 3.0 | 0.00 | 0.00 | 0.00 | 98 | 1013.0 |
| 20260509045300 | 49 | 112 | 0.0 | 2.0 | 0.00 | 0.00 | 0.00 | 97 | 1013.3 |
| 20260509044757 | 49 | 107 | 1.0 | 5.0 | 0.00 | 0.00 | 0.00 | 98 | 1013.3 |
| 20260509044255 | 49 | 122 | 0.0 | 0.0 | 0.00 | 0.00 | 0.00 | 98 | 1013.5 |
| 20260509043751 | 49 | 116 | 0.0 | 0.0 | 0.00 | 0.00 | 0.00 | 98 | 1013.6 |
| 20260509043247 | 49 | 123 | 0.0 | 0.0 | 0.00 | 0.00 | 0.00 | 98 | 1013.6 |
| 20260509042743 | 49 | 133 | 0.0 | 0.0 | 0.00 | 0.00 | 0.00 | 98 | 1013.7 |
| 20260509042240 | 49 | 133 | 0.0 | 0.0 | 0.00 | 0.00 | 0.00 | 98 | 1013.4 |
| 20260509041737 | 49 | 127 | 0.0 | 0.0 | 0.00 | 0.00 | 0.00 | 98 | 1013.4 |
| 20260509041234 | 49 | 136 | 0.0 | 0.0 | 0.00 | 0.00 | 0.00 | 98 | 1013.4 |
| 20260509040732 | 49 | 133 | 0.0 | 0.0 | 0.00 | 0.00 | 0.00 | 97 | 1013.4 |
| 20260509040229 | 49 | 140 | 0.0 | 0.0 | 0.00 | 0.00 | 0.00 | 97 | 1013.5 |
| 20260509035725 | 49 | 151 | 1.0 | 1.0 | 0.00 | 0.01 | 0.01 | 97 | 1013.7 |
| 20260509035223 | 49 | 160 | 2.0 | 2.0 | 0.00 | 0.01 | 0.01 | 97 | 1013.4 |
| 20260509034719 | 48 | 41 | 3.0 | 5.0 | 0.00 | 0.01 | 0.01 | 98 | 1013.5 |
| 20260509034217 | 48 | 119 | 1.0 | 1.0 | 0.00 | 0.01 | 0.01 | 98 | 1012.8 |
| 20260509033714 | 48 | 120 | 0.0 | 1.0 | 0.00 | 0.01 | 0.01 | 98 | 1013.1 |
| 20260509033211 | 48 | 126 | 0.0 | 0.0 | 0.00 | 0.01 | 0.01 | 98 | 1013.1 |
| 20260509032708 | 48 | 115 | 2.0 | 2.0 | 0.00 | 0.01 | 0.01 | 97 | 1012.8 |
| 20260509032205 | 48 | 110 | 2.0 | 2.0 | 0.00 | 0.01 | 0.01 | 97 | 1013.2 |
| 20260509031702 | 48 | 147 | 0.0 | 0.0 | 0.00 | 0.01 | 0.01 | 97 | 1013.2 |
| 20260509031200 | 48 | 148 | 0.0 | 0.0 | 0.00 | 0.01 | 0.01 | 97 | 1013.4 |
| 20260509030658 | 48 | 148 | 0.0 | 0.0 | 0.00 | 0.01 | 0.01 | 97 | 1013.3 |
| 20260509030155 | 48 | 149 | 0.0 | 0.0 | 0.00 | 0.01 | 0.01 | 97 | 1013.4 |
| 20260509025651 | 48 | 148 | 0.0 | 0.0 | 0.00 | 0.01 | 0.01 | 97 | 1013.3 |
| 20260509025147 | 48 | 148 | 0.0 | 0.0 | 0.00 | 0.01 | 0.01 | 98 | 1013.4 |
| 20260509024642 | 48 | 141 | 0.0 | 0.0 | 0.00 | 0.01 | 0.01 | 98 | 1013.4 |
| 20260509024138 | 48 | 137 | 0.0 | 0.0 | 0.00 | 0.01 | 0.01 | 98 | 1013.4 |
| 20260509023637 | 48 | 122 | 0.0 | 0.0 | 0.00 | 0.01 | 0.01 | 98 | 1013.3 |
| 20260509023133 | 48 | 121 | 0.0 | 0.0 | 0.00 | 0.01 | 0.01 | 98 | 1013.2 |
| 20260509022629 | 48 | 119 | 0.0 | 0.0 | 0.00 | 0.01 | 0.01 | 97 | 1013.3 |
| 20260509022128 | 48 | 122 | 0.0 | 0.0 | 0.00 | 0.01 | 0.01 | 97 | 1013.3 |
| 20260509021624 | 48 | 144 | 0.0 | 0.0 | 0.00 | 0.01 | 0.01 | 96 | 1013.1 |
| 20260509021121 | 48 | 144 | 0.0 | 0.0 | 0.00 | 0.01 | 0.01 | 96 | 1013.3 |
| 20260509020620 | 48 | 145 | 0.0 | 0.0 | 0.00 | 0.01 | 0.01 | 96 | 1013.5 |
| 20260509020116 | 48 | 146 | 0.0 | 0.0 | 0.00 | 0.01 | 0.01 | 95 | 1013.2 |
| 20260509015615 | 48 | 139 | 0.0 | 0.0 | 0.00 | 0.01 | 0.01 | 95 | 1013.6 |
| 20260509015112 | 48 | 114 | 0.0 | 0.0 | 0.00 | 0.01 | 0.01 | 96 | 1013.4 |
| 20260509014608 | 48 | 129 | 0.0 | 0.0 | 0.00 | 0.01 | 0.01 | 96 | 1013.3 |
| 20260509014105 | 48 | 124 | 0.0 | 0.0 | 0.00 | 0.01 | 0.01 | 96 | 1013.5 |
| 20260509013602 | 48 | 129 | 0.0 | 0.0 | 0.00 | 0.01 | 0.01 | 96 | 1013.4 |
| 20260509013057 | 48 | 129 | 0.0 | 0.0 | 0.00 | 0.01 | 0.01 | 95 | 1013.3 |
| 20260509012554 | 48 | 129 | 0.0 | 0.0 | 0.00 | 0.01 | 0.01 | 95 | 1013.1 |
| 20260509012051 | 48 | 129 | 0.0 | 0.0 | 0.00 | 0.01 | 0.01 | 95 | 1013.1 |
| 20260509011549 | 48 | 129 | 0.0 | 0.0 | 0.00 | 0.01 | 0.01 | 96 | 1013.2 |
| 20260509011046 | 49 | 129 | 0.0 | 0.0 | 0.00 | 0.01 | 0.01 | 97 | 1013.1 |
| 20260509010544 | 49 | 129 | 0.0 | 0.0 | 0.00 | 0.01 | 0.01 | 95 | 1012.8 |
| 20260509010040 | 49 | 128 | 0.0 | 0.0 | 0.00 | 0.01 | 0.01 | 93 | 1012.7 |
| 20260509005538 | 50 | 147 | 0.0 | 0.0 | 0.00 | 0.01 | 0.01 | 93 | 1012.7 |
| 20260509005038 | 50 | 133 | 0.0 | 0.0 | 0.00 | 0.01 | 0.01 | 93 | 1013.0 |
| 20260509004536 | 50 | 132 | 0.0 | 2.0 | 0.00 | 0.01 | 0.01 | 92 | 1012.7 |
| 20260509004032 | 50 | 158 | 0.0 | 0.0 | 0.00 | 0.01 | 0.01 | 92 | 1012.7 |
| 20260509003531 | 50 | 158 | 0.0 | 0.0 | 0.00 | 0.01 | 0.01 | 91 | 1012.7 |
| 20260509003027 | 51 | 158 | 0.0 | 0.0 | 0.00 | 0.01 | 0.01 | 91 | 1012.8 |
| 20260509002525 | 51 | 158 | 0.0 | 0.0 | 0.00 | 0.01 | 0.01 | 92 | 1012.6 |
| 20260509002022 | 52 | 158 | 0.0 | 0.0 | 0.00 | 0.01 | 0.01 | 90 | 1012.4 |
| 20260509001520 | 52 | 158 | 0.0 | 0.0 | 0.00 | 0.01 | 0.01 | 88 | 1012.5 |
| 20260509001015 | 53 | 158 | 0.0 | 1.0 | 0.00 | 0.01 | 0.01 | 91 | 1012.5 |
| 20260509000514 | 53 | 158 | 0.0 | 0.0 | 0.00 | 0.01 | 0.01 | 88 | 1012.4 |
| 20260509000009 | 53 | 158 | 0.0 | 0.0 | 0.00 | 0.01 | 0.01 | 86 | 1012.4 |
| 20260508235508 | 53 | 158 | 0.0 | 0.0 | 0.00 | 0.01 | 0.01 | 86 | 1012.2 |
| 20260508235004 | 54 | 158 | 0.0 | 0.0 | 0.00 | 0.01 | 0.01 | 84 | 1012.2 |
| 20260508234501 | 55 | 158 | 0.0 | 0.0 | 0.00 | 0.01 | 0.01 | 79 | 1012.1 |
| 20260508233958 | 55 | 158 | 0.0 | 0.0 | 0.00 | 0.01 | 0.01 | 79 | 1012.0 |
| 20260508233457 | 56 | 158 | 0.0 | 0.0 | 0.00 | 0.01 | 0.01 | 74 | 1011.9 |
| 20260508232954 | 56 | 158 | 0.0 | 0.0 | 0.00 | 0.01 | 0.01 | 74 | 1012.0 |
| 20260508232451 | 56 | 154 | 0.0 | 2.0 | 0.00 | 0.01 | 0.01 | 74 | 1012.0 |
| 20260508231948 | 56 | 158 | 1.0 | 3.0 | 0.00 | 0.01 | 0.01 | 74 | 1012.1 |
| 20260508231445 | 56 | 206 | 4.0 | 5.0 | 0.00 | 0.01 | 0.01 | 73 | 1012.2 |
| 20260508230942 | 56 | 186 | 4.0 | 5.0 | 0.00 | 0.01 | 0.01 | 73 | 1012.1 |
| 20260508230439 | 57 | 182 | 2.0 | 2.0 | 0.00 | 0.01 | 0.01 | 73 | 1012.2 |
| 20260508225936 | 57 | 202 | 3.0 | 6.0 | 0.00 | 0.01 | 0.01 | 71 | 1012.2 |
| 20260508225432 | 57 | 246 | 3.0 | 6.0 | 0.00 | 0.01 | 0.01 | 69 | 1012.1 |
| 20260508224930 | 58 | 226 | 5.0 | 11.0 | 0.00 | 0.01 | 0.01 | 67 | 1012.2 |
| 20260508224428 | 58 | 182 | 3.0 | 8.0 | 0.00 | 0.01 | 0.01 | 65 | 1012.2 |
| 20260508223924 | 59 | 171 | 1.0 | 2.0 | 0.00 | 0.01 | 0.01 | 64 | 1012.1 |
| 20260508223423 | 59 | 197 | 2.0 | 2.0 | 0.00 | 0.01 | 0.01 | 64 | 1011.8 |
| 20260508222919 | 59 | 152 | 0.0 | 0.0 | 0.00 | 0.01 | 0.01 | 63 | 1011.8 |